Time;durP1;ratioP1;P1;durP2;ratioP2;P2;SDS_P1;SDS_P2;PMS_P1;PMS_P2;Temp;Humidity;BMP_temperature;BMP_pressure;BME280_temperature;BME280_humidity;BME280_pressure;Samples;Min_cycle;Max_cycle;Signal;HPM_P1;HPM_P2
2022/08/11 00:00:10;;;;;;;4.15;2.75;;;;;;;20.68;46.91;101990.38;4991809;28;20507;-79
2022/08/11 00:02:39;;;;;;;3.83;2.42;;;;;;;20.61;47.61;101992.69;4989335;28;20496;-80
2022/08/11 00:05:11;;;;;;;4.35;2.88;;;;;;;20.65;46.92;102001.44;4980069;28;20053;-80
2022/08/11 00:07:53;;;;;;;4.47;2.67;;;;;;;20.62;46.95;101993.53;5000612;28;20073;-80
2022/08/11 00:10:24;;;;;;;7.55;2.58;;;;;;;20.59;47.23;101999.19;4983607;28;20096;-80
2022/08/11 00:13:08;;;;;;;3.65;2.67;;;;;;;20.59;47.30;101993.78;4969112;28;20033;-79
2022/08/11 00:15:51;;;;;;;6.43;3.10;;;;;;;20.51;46.92;101990.78;4981246;28;20073;-79
2022/08/11 00:18:17;;;;;;;;;;;;;;;20.60;46.69;101995.47;4973204;28;20022;-79
2022/08/11 00:20:44;;;;;;;5.43;2.40;;;;;;;20.43;47.99;101994.00;4977510;28;19928;-79
2022/08/11 00:23:15;;;;;;;4.43;2.85;;;;;;;20.40;48.07;101987.00;4985493;28;20018;-79
2022/08/11 00:25:43;;;;;;;6.07;2.78;;;;;;;20.40;48.45;101994.25;4989361;28;20053;-80
2022/08/11 00:28:38;;;;;;;4.35;2.83;;;;;;;20.37;47.53;101989.94;4976420;28;20073;-80
2022/08/11 00:31:07;;;;;;;4.57;2.88;;;;;;;20.30;48.35;101991.34;4987392;28;20212;-80
2022/08/11 00:33:43;;;;;;;4.18;2.70;;;;;;;20.26;47.93;101991.69;4984966;28;20153;-79
2022/08/11 00:36:12;;;;;;;5.07;2.80;;;;;;;20.17;48.54;101989.66;4993657;28;20035;-79
2022/08/11 00:38:41;;;;;;;3.03;2.72;;;;;;;20.20;48.64;101992.16;4989455;28;20022;-79
2022/08/11 00:41:31;;;;;;;3.78;2.70;;;;;;;20.14;48.33;101990.75;4975846;28;20031;-80
2022/08/11 00:44:24;;;;;;;4.85;2.78;;;;;;;20.15;48.39;101989.78;4981339;28;20444;-81
2022/08/11 00:47:01;;;;;;;5.88;3.45;;;;;;;20.10;48.80;101989.25;4985805;28;20029;-80
2022/08/11 00:49:44;;;;;;;3.22;2.67;;;;;;;20.03;48.52;101994.25;4977432;28;20114;-80
2022/08/11 00:52:31;;;;;;;3.97;3.10;;;;;;;20.00;48.75;101991.75;4983312;28;20038;-81
2022/08/11 00:55:35;;;;;;;5.70;2.80;;;;;;;20.00;48.63;101989.06;4980885;28;20301;-81
2022/08/11 00:58:46;;;;;;;4.10;3.00;;;;;;;19.95;49.09;101987.69;4973743;28;20062;-80
2022/08/11 01:01:15;;;;;;;3.92;2.78;;;;;;;19.85;49.62;101982.03;4977411;28;20507;-80
2022/08/11 01:04:08;;;;;;;4.35;2.50;;;;;;;19.82;49.30;101985.84;4986008;28;20054;-79
2022/08/11 01:06:49;;;;;;;3.20;2.90;;;;;;;19.81;49.38;101985.94;4983734;28;20361;-79
2022/08/11 01:09:38;;;;;;;4.50;2.92;;;;;;;19.75;49.34;101981.84;4991567;28;20458;-80
2022/08/11 01:12:41;;;;;;;4.07;2.80;;;;;;;19.77;49.28;101979.03;4981244;28;20480;-80
2022/08/11 01:15:39;;;;;;;3.30;2.83;;;;;;;19.70;49.95;101989.44;4994657;28;20046;-79
2022/08/11 01:18:25;;;;;;;4.60;2.92;;;;;;;19.66;50.06;101977.13;4990556;28;20030;-79
2022/08/11 01:21:27;;;;;;;4.38;2.92;;;;;;;19.68;49.42;101977.00;4982920;28;20038;-80
2022/08/11 01:24:30;;;;;;;3.13;2.50;;;;;;;19.62;49.78;101978.31;4979367;28;20033;-79
2022/08/11 01:27:23;;;;;;;3.17;2.85;;;;;;;19.63;50.13;101980.03;4989326;28;20553;-80
2022/08/11 01:30:19;;;;;;;3.35;2.72;;;;;;;19.58;50.75;101990.25;4989465;28;20472;-80
2022/08/11 01:33:00;;;;;;;4.78;2.97;;;;;;;19.60;50.30;101991.88;4975320;28;20062;-79
2022/08/11 01:35:50;;;;;;;4.80;2.70;;;;;;;19.58;49.87;101990.25;4985995;28;20093;-79
2022/08/11 01:38:21;;;;;;;3.78;2.88;;;;;;;19.53;50.79;101993.28;4985627;28;20039;-79
2022/08/11 01:41:12;;;;;;;5.13;3.50;;;;;;;19.51;51.29;101994.34;4975651;28;20026;-79
2022/08/11 01:47:49;;;;;;;3.92;2.80;;;;;;;19.39;50.66;101994.25;4981417;28;20127;-79
2022/08/11 01:50:08;;;;;;;5.93;3.15;;;;;;;19.33;51.18;101993.81;4974830;28;20128;-80
2022/08/11 01:52:47;;;;;;;4.47;3.17;;;;;;;19.19;51.48;101996.59;4979328;28;20573;-79
2022/08/11 01:55:22;;;;;;;5.22;2.95;;;;;;;19.18;51.75;102003.84;4980681;28;20076;-79
2022/08/11 01:58:15;;;;;;;5.10;2.95;;;;;;;19.14;51.49;102003.19;4987961;28;20512;-80
2022/08/11 02:00:53;;;;;;;4.32;2.88;;;;;;;19.06;51.68;101996.56;4988328;28;20516;-78
2022/08/11 02:03:52;;;;;;;4.43;3.00;;;;;;;19.07;51.40;102001.03;4975571;28;20064;-80
2022/08/11 02:09:27;;;;;;;4.25;3.13;;;;;;;19.00;51.99;101995.16;4985997;28;20044;-79
2022/08/11 02:12:02;;;;;;;4.28;3.00;;;;;;;18.95;52.00;101997.31;4986104;28;20077;-80
2022/08/11 02:14:38;;;;;;;3.42;3.13;;;;;;;18.91;52.29;101999.34;4987264;28;20034;-79
2022/08/11 02:17:06;;;;;;;4.53;3.25;;;;;;;18.92;52.96;101997.53;4984617;28;20615;-79
2022/08/11 02:25:26;;;;;;;6.28;3.10;;;;;;;18.76;52.66;101996.81;4979622;28;20282;-79
2022/08/11 02:28:18;;;;;;;4.40;3.10;;;;;;;18.73;52.17;101992.53;4985086;28;20049;-79
2022/08/11 02:34:14;;;;;;;5.97;3.83;;;;;;;18.53;53.42;101993.81;4950777;28;20169;-79
2022/08/11 02:36:53;;;;;;;4.90;3.30;;;;;;;18.50;53.54;101995.84;4941386;28;20110;-79
2022/08/11 02:39:23;;;;;;;3.92;3.40;;;;;;;18.40;54.24;101999.13;4933032;28;20157;-79
2022/08/11 02:44:57;;;;;;;6.25;3.30;;;;;;;18.36;54.25;101992.22;4946193;28;20626;-79
2022/08/11 02:49:52;;;;;;;6.53;3.28;;;;;;;18.34;54.46;101993.28;4928373;28;20032;-79
2022/08/11 02:50:36;;;;;;;5.32;3.13;;;;;;;18.20;54.81;101994.19;4944124;28;20105;-80
2022/08/11 02:53:23;;;;;;;4.45;3.55;;;;;;;18.23;54.66;101988.59;4934854;28;20073;-79
2022/08/11 02:56:07;;;;;;;5.55;3.30;;;;;;;18.19;54.75;101992.47;4943264;28;20097;-79
2022/08/11 03:01:47;;;;;;;5.18;3.63;;;;;;;18.03;55.48;101975.53;4941039;28;21522;-79
2022/08/11 03:04:20;;;;;;;5.10;3.50;;;;;;;18.08;55.25;101989.56;4943707;29;20042;-79
2022/08/11 03:06:57;;;;;;;5.82;3.75;;;;;;;18.02;55.74;101985.47;4933873;28;20058;-80
2022/08/11 03:09:37;;;;;;;4.70;3.47;;;;;;;18.04;55.24;101985.34;4940492;28;20477;-79
2022/08/11 03:18:03;;;;;;;4.30;3.78;;;;;;;17.88;56.42;101983.63;4986614;28;20054;-79
2022/08/11 03:20:43;;;;;;;5.05;3.50;;;;;;;17.90;55.48;101987.09;4986793;28;20030;-80
2022/08/11 03:23:40;;;;;;;6.63;4.05;;;;;;;17.87;55.38;101983.72;4982875;28;20308;-80
2022/08/11 03:26:23;;;;;;;5.28;3.40;;;;;;;17.86;56.13;101993.66;4986005;28;20676;-79
2022/08/11 03:29:42;;;;;;;5.00;3.58;;;;;;;17.87;55.58;101989.97;4978435;28;20042;-79
2022/08/11 03:32:25;;;;;;;5.80;3.92;;;;;;;17.73;56.41;101979.19;4949521;28;20121;-79
2022/08/11 03:34:52;;;;;;;7.03;3.78;;;;;;;17.75;56.82;101982.69;4953767;28;20051;-79
2022/08/11 03:37:52;;;;;;;7.00;3.97;;;;;;;17.75;56.04;101985.38;4949986;28;20121;-79
2022/08/11 03:41:41;;;;;;;6.25;3.67;;;;;;;17.66;57.18;101983.22;4951923;28;20478;-79
2022/08/11 03:43:27;;;;;;;5.28;3.70;;;;;;;17.64;56.54;101990.53;4947378;28;20392;-79
2022/08/11 03:46:09;;;;;;;5.40;4.20;;;;;;;17.61;56.92;101985.34;4947375;28;20319;-79
2022/08/11 03:49:00;;;;;;;5.97;4.00;;;;;;;17.55;57.04;101991.09;4944905;28;20037;-79
2022/08/11 03:51:38;;;;;;;5.63;3.78;;;;;;;17.46;57.41;101980.91;4946323;28;20408;-80
2022/08/11 03:54:18;;;;;;;5.38;3.90;;;;;;;17.47;57.07;101978.09;4946784;28;20047;-79
2022/08/11 03:57:03;;;;;;;5.80;3.85;;;;;;;17.43;58.29;101977.47;4940330;28;20642;-80
2022/08/11 03:59:34;;;;;;;5.05;3.95;;;;;;;17.39;58.11;101977.75;4941954;28;20117;-80
2022/08/11 04:02:05;;;;;;;6.78;4.10;;;;;;;17.36;58.43;101986.88;4937826;28;20039;-79
2022/08/11 04:04:55;;;;;;;5.63;3.83;;;;;;;17.37;58.02;101982.34;4938417;28;20059;-80
2022/08/11 04:08:03;;;;;;;6.32;4.13;;;;;;;17.30;57.65;101984.53;4976637;28;20053;-80
2022/08/11 04:11:06;;;;;;;5.63;3.97;;;;;;;17.27;57.59;101978.50;4986269;28;20034;-80
2022/08/11 04:13:50;;;;;;;5.68;4.10;;;;;;;17.20;58.81;101980.69;4977095;28;20435;-80
2022/08/11 04:16:34;;;;;;;7.45;4.40;;;;;;;17.21;58.73;101974.34;4982012;28;20042;-80
2022/08/11 04:19:33;;;;;;;6.50;3.92;;;;;;;17.17;58.43;101972.78;4978452;28;20089;-79
2022/08/11 04:22:36;;;;;;;6.82;3.95;;;;;;;17.12;58.93;101973.06;4976615;28;20053;-80
2022/08/11 04:25:19;;;;;;;6.20;3.73;;;;;;;17.09;58.98;101972.38;4961029;28;20054;-80
2022/08/11 04:28:22;;;;;;;6.95;3.88;;;;;;;17.07;58.62;101969.78;4992340;28;20682;-80
2022/08/11 04:31:09;;;;;;;4.93;4.00;;;;;;;17.10;58.71;101969.63;4984087;28;20026;-79
2022/08/11 04:34:07;;;;;;;7.88;4.40;;;;;;;17.09;59.20;101975.06;4973964;28;20026;-79
2022/08/11 04:40:09;;;;;;;5.72;4.10;;;;;;;17.10;58.73;101960.69;4973614;28;20097;-80
2022/08/11 04:46:12;;;;;;;7.45;4.20;;;;;;;17.06;58.94;101970.75;4980831;28;20215;-80
2022/08/11 05:07:24;;;;;;;8.30;5.47;;;;;;;17.05;59.42;101986.97;4942028;29;20134;-80
2022/08/11 05:10:09;;;;;;;6.88;4.43;;;;;;;16.99;60.17;101981.97;4942933;29;20084;-79
2022/08/11 05:12:54;;;;;;;7.97;4.90;;;;;;;16.97;60.16;101979.38;4941055;29;20043;-80
2022/08/11 05:36:16;;;;;;;5.88;4.68;;;;;;;17.65;59.21;101981.50;4983799;28;20084;-80
2022/08/11 05:58:12;;;;;;;10.73;4.97;;;;;;;19.03;55.65;101989.56;4978330;28;20487;-79
2022/08/11 06:00:44;;;;;;;8.15;5.20;;;;;;;19.17;55.47;101992.19;4974780;28;20034;-78
2022/08/11 06:03:11;;;;;;;6.10;4.82;;;;;;;19.39;55.23;101982.59;4984946;28;20051;-78
2022/08/11 06:05:40;;;;;;;7.13;5.22;;;;;;;19.48;54.39;101989.16;4980104;28;20542;-80
2022/08/11 06:08:07;;;;;;;10.43;5.32;;;;;;;19.59;54.52;101991.97;4983194;28;20113;-77
2022/08/11 06:10:38;;;;;;;9.32;5.05;;;;;;;19.74;53.87;101993.66;4980223;28;20023;-78
2022/08/11 06:13:05;;;;;;;7.72;5.13;;;;;;;19.85;53.51;101985.63;4983144;28;20038;-78
2022/08/11 06:15:42;;;;;;;8.02;5.10;;;;;;;20.14;53.10;101996.16;4982623;28;20118;-78
2022/08/11 06:18:10;;;;;;;11.68;5.60;;;;;;;20.31;52.93;101992.22;4979206;28;20027;-78
2022/08/11 06:20:46;;;;;;;8.02;5.30;;;;;;;20.45;52.62;101986.66;4980991;28;20026;-77
2022/08/11 06:23:14;;;;;;;10.38;6.03;;;;;;;20.47;51.74;101979.28;4974004;28;20027;-79
2022/08/11 06:25:39;;;;;;;8.70;5.20;;;;;;;20.61;51.39;101991.81;4980145;28;20116;-78
2022/08/11 06:28:07;;;;;;;9.80;5.38;;;;;;;20.73;51.74;101999.00;4974370;28;20030;-78
2022/08/11 06:30:39;;;;;;;6.18;5.20;;;;;;;20.96;51.82;101991.00;4980915;28;20037;-79
2022/08/11 06:33:13;;;;;;;8.10;5.10;;;;;;;21.16;50.57;101992.16;4979453;28;20031;-79
2022/08/11 06:36:01;;;;;;;8.52;5.00;;;;;;;21.33;50.45;101989.91;4974023;28;20117;-78
2022/08/11 06:38:39;;;;;;;8.85;5.25;;;;;;;21.39;49.91;101985.84;4986533;28;20066;-79
2022/08/11 06:41:29;;;;;;;7.40;4.82;;;;;;;21.58;50.00;101996.94;4976964;28;20476;-78
2022/08/11 06:44:15;;;;;;;9.57;5.10;;;;;;;21.78;49.31;101998.06;4978134;28;20042;-79
2022/08/11 06:46:50;;;;;;;16.75;5.55;;;;;;;21.97;48.92;101994.72;4980929;28;20172;-80
2022/08/11 06:52:06;;;;;;;7.25;5.25;;;;;;;22.23;48.25;102003.47;4986795;28;20037;-80
2022/08/11 06:54:35;;;;;;;10.27;4.78;;;;;;;22.49;47.45;102004.06;4975750;28;20077;-77
2022/08/11 07:02:35;;;;;;;6.45;4.50;;;;;;;23.04;45.07;101998.59;4981413;28;20052;-77
2022/08/11 07:05:10;;;;;;;7.30;5.03;;;;;;;23.23;45.39;102000.56;4973962;28;20411;-77
2022/08/11 07:17:07;;;;;;;8.27;4.78;;;;;;;24.24;42.88;102003.38;4956268;28;20054;-76
2022/08/11 07:30:51;;;;;;;6.03;4.53;;;;;;;25.81;36.92;101995.94;4960795;28;20174;-76
2022/08/11 07:33:28;;;;;;;7.75;4.90;;;;;;;26.08;37.33;101996.94;4960925;28;20043;-76
2022/08/11 07:35:58;;;;;;;8.68;4.53;;;;;;;26.43;36.46;102001.63;4963088;28;20118;-76
2022/08/11 07:38:42;;;;;;;9.45;5.10;;;;;;;26.50;35.71;102007.34;4963826;28;20031;-76
2022/08/11 07:41:13;;;;;;;9.35;5.10;;;;;;;26.55;35.68;101989.50;4960759;28;20516;-76
2022/08/11 07:43:40;;;;;;;15.40;5.88;;;;;;;26.96;35.03;101997.22;4962774;28;20128;-77
2022/08/11 07:54:22;;;;;;;10.43;5.05;;;;;;;28.39;34.21;102005.00;4973108;28;20562;-77
2022/08/11 07:56:48;;;;;;;16.98;5.78;;;;;;;28.56;33.08;101998.53;4980358;28;20377;-77
2022/08/11 08:18:33;;;;;;;9.75;5.57;;;;;;;31.17;28.87;102005.97;4976520;28;20113;-77
2022/08/11 08:21:10;;;;;;;8.43;5.20;;;;;;;31.59;29.45;102012.81;4972595;28;20383;-77
2022/08/11 08:23:38;;;;;;;10.88;5.65;;;;;;;32.07;27.30;102001.44;4973738;28;20109;-77
2022/08/11 08:26:57;;;;;;;6.53;4.93;;;;;;;32.21;27.58;102001.41;4978520;28;20038;-77
2022/08/11 08:30:45;;;;;;;12.18;5.93;;;;;;;32.47;27.08;101994.53;4970454;28;20114;-77
2022/08/11 08:31:40;;;;;;;9.45;5.20;;;;;;;33.07;26.75;101990.50;4970393;28;20400;-78
2022/08/11 08:34:06;;;;;;;9.35;5.15;;;;;;;33.59;25.95;101999.41;4977141;28;20058;-77
2022/08/11 08:36:31;;;;;;;10.93;5.45;;;;;;;33.73;24.73;102003.94;4972938;28;20065;-78
2022/08/11 08:38:57;;;;;;;7.78;4.45;;;;;;;33.92;23.84;102005.13;4972219;28;20034;-78
2022/08/11 08:41:27;;;;;;;9.90;4.50;;;;;;;33.90;24.08;102004.47;4976335;28;20026;-79
2022/08/11 08:43:55;;;;;;;6.28;4.15;;;;;;;34.41;23.42;102006.88;4981135;28;20038;-81
2022/08/11 08:46:26;;;;;;;6.88;4.38;;;;;;;34.73;23.25;102009.94;4978067;28;20142;-79
2022/08/11 08:48:53;;;;;;;9.05;4.38;;;;;;;35.05;21.72;102009.16;4971544;28;20031;-78
2022/08/11 08:51:35;;;;;;;8.00;3.83;;;;;;;35.23;22.28;101996.59;4979945;28;20058;-77
2022/08/11 08:54:07;;;;;;;5.73;4.00;;;;;;;35.24;22.25;102010.22;4976494;28;20038;-80
2022/08/11 08:56:34;;;;;;;8.80;4.75;;;;;;;35.90;21.62;101990.72;4981155;28;20022;-79
2022/08/11 08:59:02;;;;;;;5.93;4.68;;;;;;;35.61;21.94;101999.53;4985342;28;20062;-80
2022/08/11 09:01:41;;;;;;;10.45;4.70;;;;;;;35.94;22.13;101988.38;4979758;28;20535;-82
2022/08/11 09:04:07;;;;;;;5.85;4.13;;;;;;;36.01;22.05;101996.69;4979381;28;20057;-79
2022/08/11 09:06:42;;;;;;;13.02;4.53;;;;;;;36.29;21.75;102001.91;4971235;28;20476;-76
2022/08/11 09:09:08;;;;;;;10.15;4.60;;;;;;;36.67;20.38;102001.06;4973576;28;20044;-79
2022/08/11 09:11:50;;;;;;;9.52;4.30;;;;;;;36.83;19.93;101990.28;4978470;28;20026;-78
2022/08/11 09:14:59;;;;;;;8.57;3.97;;;;;;;36.59;20.69;102000.25;4982541;28;20031;-78
2022/08/11 09:17:17;;;;;;;8.15;4.18;;;;;;;36.71;20.30;101999.56;4977778;28;20447;-76
2022/08/11 09:19:44;;;;;;;7.72;4.20;;;;;;;36.98;20.08;101997.44;4978371;28;20038;-78
2022/08/11 09:27:39;;;;;;;9.25;3.72;;;;;;;38.40;18.23;101987.19;4975858;28;20591;-79
2022/08/11 09:30:06;;;;;;;4.28;3.80;;;;;;;38.72;17.94;102000.84;4976382;28;20121;-80
2022/08/11 09:32:32;;;;;;;8.68;4.03;;;;;;;39.01;18.23;101987.97;4991734;28;20034;-78
2022/08/11 09:35:00;;;;;;;9.75;3.90;;;;;;;39.06;17.12;101988.09;4989013;28;20042;-78
2022/08/11 09:40:29;;;;;;;6.60;4.05;;;;;;;39.55;17.44;101981.22;4993630;28;20066;-81
2022/08/11 09:45:51;;;;;;;5.97;3.30;;;;;;;39.72;17.47;101977.72;4984463;28;20041;-78
2022/08/11 09:48:22;;;;;;;7.05;3.95;;;;;;;39.86;16.90;101981.91;4982951;28;20105;-79
2022/08/11 09:50:50;;;;;;;7.10;3.83;;;;;;;40.01;16.63;101979.47;4980489;28;20033;-79
2022/08/11 09:53:18;;;;;;;5.82;3.72;;;;;;;40.09;17.49;101984.66;4983329;28;20062;-79
2022/08/11 09:55:47;;;;;;;5.65;3.55;;;;;;;40.13;16.47;101979.44;4977579;28;20503;-78
2022/08/11 09:58:15;;;;;;;4.55;3.55;;;;;;;39.88;16.17;101978.88;4994244;28;20042;-80
2022/08/11 10:00:42;;;;;;;6.32;3.33;;;;;;;39.84;16.93;101981.34;4978541;28;20031;-77
2022/08/11 10:03:25;;;;;;;7.15;3.80;;;;;;;40.21;17.06;101978.19;4978836;28;20153;-79
2022/08/11 10:08:43;;;;;;;7.55;3.75;;;;;;;40.52;15.94;101972.09;4978392;28;20404;-80
2022/08/11 10:11:12;;;;;;;5.97;3.35;;;;;;;40.46;16.34;101975.03;4982858;28;20504;-79
2022/08/11 10:16:28;;;;;;;4.53;3.20;;;;;;;41.35;14.91;101960.41;4982853;28;20727;-81
2022/08/11 10:18:57;;;;;;;6.32;3.60;;;;;;;41.93;14.84;101957.03;4987367;28;20064;-78
2022/08/11 10:21:28;;;;;;;6.32;3.47;;;;;;;41.92;15.58;101963.72;4975436;28;20030;-77
2022/08/11 10:26:53;;;;;;;5.63;3.17;;;;;;;42.84;14.42;101959.09;4981869;28;20042;-78
2022/08/11 10:34:51;;;;;;;5.53;2.72;;;;;;;44.14;12.12;101952.00;4984938;28;20113;-78
2022/08/11 10:37:21;;;;;;;4.50;3.17;;;;;;;44.22;12.62;101952.28;4982898;28;20034;-79
2022/08/11 10:39:47;;;;;;;5.43;3.15;;;;;;;44.46;11.72;101947.03;4980594;28;20023;-79
2022/08/11 10:45:00;;;;;;;5.53;3.53;;;;;;;44.45;12.91;101944.53;4977432;28;20081;-79
2022/08/11 10:47:35;;;;;;;5.05;3.00;;;;;;;44.70;12.87;101949.34;4983383;28;20064;-81
2022/08/11 11:01:07;;;;;;;5.43;3.28;;;;;;;44.16;12.68;101930.97;4979081;28;20140;-80
2022/08/11 11:03:34;;;;;;;4.97;2.65;;;;;;;44.49;12.38;101928.81;4979063;28;20081;-80
2022/08/11 11:06:07;;;;;;;4.30;2.70;;;;;;;44.15;12.08;101934.06;4983046;28;20062;-81
2022/08/11 11:08:53;;;;;;;3.95;2.60;;;;;;;44.59;12.17;101925.97;4982121;28;20110;-83
2022/08/11 11:11:21;;;;;;;3.55;2.33;;;;;;;44.75;11.25;101931.63;4982673;28;20485;-79
2022/08/11 11:19:19;;;;;;;3.30;2.50;;;;;;;45.67;10.68;101921.88;4975677;28;20050;-81
2022/08/11 11:21:48;;;;;;;20.75;18.70;;;;;;;45.51;10.38;101927.84;4988352;28;20138;-82
2022/08/11 11:24:38;;;;;;;14.50;11.02;;;;;;;45.71;11.29;101917.34;4977160;28;20058;-82
2022/08/11 11:27:20;;;;;;;4.72;2.50;;;;;;;45.95;10.17;101920.34;4979793;28;20035;-82
2022/08/11 11:30:08;;;;;;;5.10;2.47;;;;;;;46.32;10.43;101929.41;4998020;28;20022;-80
2022/08/11 11:32:52;;;;;;;3.50;2.70;;;;;;;46.18;10.66;101924.44;4983841;28;20474;-82
2022/08/11 11:35:35;;;;;;;4.72;2.80;;;;;;;45.83;10.27;101919.03;4979636;28;20034;-78
2022/08/11 11:38:01;;;;;;;4.07;2.83;;;;;;;45.63;10.65;101919.94;4984539;28;20053;-80
2022/08/11 11:40:28;;;;;;;4.28;3.00;;;;;;;45.38;11.07;101924.50;4969895;28;20034;-80
2022/08/11 11:42:57;;;;;;;4.47;3.00;;;;;;;44.94;11.20;101916.72;4973336;28;20035;-80
2022/08/11 11:45:26;;;;;;;3.92;2.83;;;;;;;45.00;10.63;101909.13;4969194;28;20042;-79
2022/08/11 11:47:54;;;;;;;4.38;2.45;;;;;;;44.66;10.66;101911.72;4979715;28;20034;-80
2022/08/11 11:50:27;;;;;;;3.67;2.40;;;;;;;44.71;10.63;101912.53;4978912;28;20026;-80
2022/08/11 11:52:54;;;;;;;3.40;2.70;;;;;;;45.14;10.50;101906.59;4989947;28;20086;-79
2022/08/11 11:55:24;;;;;;;6.55;2.83;;;;;;;45.40;10.59;101905.38;4975596;28;20031;-78
2022/08/11 12:03:23;;;;;;;4.20;3.40;;;;;;;46.20;9.67;101912.91;4983227;28;20487;-83
2022/08/11 12:05:51;;;;;;;3.92;2.85;;;;;;;46.31;9.84;101893.94;4979788;28;20082;-79
2022/08/11 12:08:18;;;;;;;4.55;2.95;;;;;;;46.45;9.66;101897.78;4972329;28;20053;-82
2022/08/11 12:10:49;;;;;;;3.10;2.80;;;;;;;46.42;9.97;101899.22;4978038;28;20018;-79
2022/08/11 12:16:02;;;;;;;3.20;2.90;;;;;;;47.05;9.14;101891.88;4968156;28;20069;-82
2022/08/11 12:18:31;;;;;;;3.28;2.80;;;;;;;46.15;9.58;101884.75;4983097;28;20353;-78
2022/08/11 12:20:59;;;;;;;3.17;2.50;;;;;;;45.91;9.85;101890.28;4985096;28;20224;-80
2022/08/11 12:28:56;;;;;;;5.57;2.72;;;;;;;46.65;9.89;101880.69;4987209;28;20065;-81
2022/08/11 12:31:24;;;;;;;3.95;2.75;;;;;;;47.04;9.61;101874.16;4979937;28;20049;-79
2022/08/11 12:33:50;;;;;;;3.42;3.00;;;;;;;47.40;8.84;101863.28;4974959;28;20037;-80
2022/08/11 12:36:17;;;;;;;6.30;3.20;;;;;;;47.13;8.99;101865.88;4980920;28;20416;-79
2022/08/11 12:38:46;;;;;;;8.15;2.83;;;;;;;46.10;9.59;101860.31;4976132;28;20034;-81
2022/08/11 12:46:44;;;;;;;4.25;2.70;;;;;;;45.62;10.32;101856.41;4982494;28;20164;-79
2022/08/11 12:52:05;;;;;;;3.70;2.80;;;;;;;45.97;9.96;101851.69;4979397;28;20052;-80
2022/08/11 12:54:37;;;;;;;5.15;2.83;;;;;;;46.62;10.71;101846.69;4979552;28;20161;-79
2022/08/11 13:05:23;;;;;;;4.20;3.30;;;;;;;45.36;9.87;101838.75;4989597;28;20049;-81
2022/08/11 13:07:49;;;;;;;10.60;6.65;;;;;;;45.34;10.54;101827.81;4992407;28;20026;-82
2022/08/11 13:12:46;;;;;;;7.65;4.43;;;;;;;45.03;10.17;101820.63;4991381;28;20109;-82
2022/08/11 13:13:06;;;;;;;5.25;3.72;;;;;;;45.65;10.46;101822.91;4992213;28;20042;-81
2022/08/11 13:15:32;;;;;;;4.82;3.00;;;;;;;45.86;11.16;101818.03;4983843;28;20478;-82
2022/08/11 13:17:59;;;;;;;5.70;4.00;;;;;;;44.86;10.36;101819.00;4980907;28;20069;-81
2022/08/11 13:20:25;;;;;;;8.52;5.43;;;;;;;43.86;12.24;101813.97;4994341;28;20022;-80
2022/08/11 13:22:54;;;;;;;5.47;3.67;;;;;;;42.96;12.55;101813.28;4985539;28;20094;-81
2022/08/11 13:25:23;;;;;;;4.53;2.88;;;;;;;42.58;12.46;101808.81;4986587;28;20459;-79
2022/08/11 13:27:50;;;;;;;5.07;2.90;;;;;;;42.14;12.41;101807.06;4985868;28;20034;-81
2022/08/11 13:33:03;;;;;;;7.00;3.50;;;;;;;40.39;12.94;101799.47;4996716;28;20041;-80
2022/08/11 13:35:30;;;;;;;5.53;3.20;;;;;;;39.73;13.77;101793.53;4986622;28;20030;-80
2022/08/11 13:37:57;;;;;;;26.42;20.95;;;;;;;39.18;14.22;101794.06;4978689;28;20423;-81
2022/08/11 13:40:24;;;;;;;10.52;7.20;;;;;;;38.90;15.33;101794.81;4977966;28;20018;-79
2022/08/11 13:42:50;;;;;;;7.88;3.80;;;;;;;38.58;15.28;101795.16;4982149;28;20097;-84
2022/08/11 13:45:17;;;;;;;4.57;2.80;;;;;;;38.38;15.02;101791.91;4980548;28;20034;-83
2022/08/11 13:47:44;;;;;;;4.57;2.92;;;;;;;38.06;15.72;101796.91;4983883;28;20710;-83
2022/08/11 13:50:12;;;;;;;4.05;3.10;;;;;;;37.61;15.33;101783.44;4976674;28;20030;-81
2022/08/11 13:52:38;;;;;;;4.95;4.40;;;;;;;37.81;16.90;101780.38;4977473;28;20027;-82
2022/08/11 13:55:05;;;;;;;8.48;5.45;;;;;;;38.00;16.24;101783.94;4981571;28;20050;-82
2022/08/11 13:57:32;;;;;;;4.75;3.35;;;;;;;38.01;15.75;101778.16;4993845;28;20165;-83
2022/08/11 14:00:08;;;;;;;4.70;2.90;;;;;;;37.92;15.80;101779.59;4987842;28;20400;-83
2022/08/11 14:02:36;;;;;;;4.00;3.05;;;;;;;37.46;15.55;101781.09;4979478;28;20370;-83
2022/08/11 14:05:10;;;;;;;20.30;13.55;;;;;;;37.04;16.21;101772.63;4993369;28;20046;-82
2022/08/11 14:07:38;;;;;;;5.38;2.90;;;;;;;36.53;16.47;101773.75;4980259;28;20939;-83
2022/08/11 14:10:06;;;;;;;5.82;2.97;;;;;;;36.37;16.81;101774.28;4978924;28;20030;-80
2022/08/11 14:15:22;;;;;;;2.90;2.67;;;;;;;35.93;16.24;101773.34;4971680;28;20046;-80
2022/08/11 14:17:53;;;;;;;6.00;3.60;;;;;;;35.85;16.77;101762.53;4969718;28;20026;-81
2022/08/11 14:20:20;;;;;;;5.40;3.40;;;;;;;35.78;16.43;101762.56;4981717;28;20291;-81
2022/08/11 14:22:46;;;;;;;4.32;3.35;;;;;;;35.50;17.08;101759.34;4985051;28;20113;-82
2022/08/11 14:25:15;;;;;;;5.10;3.30;;;;;;;35.32;17.62;101757.25;4982322;28;20042;-84
2022/08/11 14:27:43;;;;;;;10.02;5.18;;;;;;;35.33;17.85;101759.84;4969618;28;20035;-81
2022/08/11 14:30:53;;;;;;;4.72;3.78;;;;;;;35.40;17.26;101748.72;4989763;28;20037;-82
2022/08/11 14:32:56;;;;;;;5.43;2.90;;;;;;;35.37;17.44;101754.72;4990011;28;20233;-79
2022/08/11 14:35:21;;;;;;;6.15;2.90;;;;;;;35.25;16.81;101749.00;4984608;28;20069;-78
2022/08/11 14:37:47;;;;;;;5.43;3.25;;;;;;;34.83;17.00;101742.97;4983566;28;20030;-84
2022/08/11 14:47:03;;;;;;;4.55;2.85;;;;;;;34.78;17.34;101744.66;4978403;28;20035;-80
2022/08/11 14:48:28;;;;;;;4.80;3.50;;;;;;;34.75;17.73;101745.13;4982494;28;20100;-86
2022/08/11 14:50:55;;;;;;;5.35;3.25;;;;;;;34.35;17.71;101740.44;4979944;28;20424;-82
2022/08/11 14:53:22;;;;;;;8.10;3.40;;;;;;;34.20;17.98;101734.31;4981284;28;20369;-83
2022/08/11 14:58:32;;;;;;;6.32;3.50;;;;;;;34.23;18.27;101735.78;4985810;28;20048;-81
2022/08/11 15:01:01;;;;;;;4.45;3.22;;;;;;;34.28;19.09;101739.63;4981946;28;20105;-82
2022/08/11 15:03:32;;;;;;;5.72;3.50;;;;;;;34.20;18.91;101737.06;4973672;28;20125;-85
2022/08/11 15:06:03;;;;;;;4.32;3.50;;;;;;;34.22;19.84;101723.88;4986223;28;20049;-82
2022/08/11 15:14:07;;;;;;;7.30;3.53;;;;;;;33.93;20.19;101720.44;4977994;28;20084;-85
2022/08/11 15:19:22;;;;;;;6.53;3.35;;;;;;;33.84;19.76;101712.59;4979008;28;20049;-83
2022/08/11 15:24:35;;;;;;;4.63;3.58;;;;;;;33.47;19.84;101717.59;4984531;28;20061;-78
2022/08/11 15:38:14;;;;;;;4.40;3.13;;;;;;;33.17;19.79;101704.13;4985231;28;20112;-80
2022/08/11 15:46:22;;;;;;;5.40;3.20;;;;;;;32.78;20.12;101695.66;4983729;28;20116;-80
2022/08/11 15:48:55;;;;;;;5.93;3.15;;;;;;;32.92;20.20;101694.69;4975300;28;20070;-77
2022/08/11 15:51:34;;;;;;;3.72;2.83;;;;;;;32.67;19.55;101692.41;4973686;28;20078;-78
2022/08/11 15:54:08;;;;;;;6.00;3.22;;;;;;;32.48;20.08;101687.59;4975946;28;20039;-78
2022/08/11 15:56:38;;;;;;;6.75;5.22;;;;;;;32.49;20.38;101683.81;4989111;28;20241;-78
2022/08/11 16:04:37;;;;;;;3.90;2.80;;;;;;;32.39;19.95;101675.91;4981650;28;20093;-78
2022/08/11 16:07:09;;;;;;;3.22;2.78;;;;;;;32.39;19.86;101673.16;4987414;28;20045;-79
2022/08/11 16:09:38;;;;;;;;;;;;;;;32.57;19.61;101685.56;4973916;28;20034;-76
2022/08/11 16:12:08;;;;;;;4.47;2.90;;;;;;;32.34;19.88;101672.03;4977959;28;20351;-77
2022/08/11 16:17:24;;;;;;;5.63;3.03;;;;;;;32.26;20.33;101675.78;4977057;28;20076;-76
2022/08/11 16:19:53;;;;;;;4.75;2.78;;;;;;;32.26;20.43;101672.19;4977316;28;20073;-76
2022/08/11 16:22:41;;;;;;;10.25;5.72;;;;;;;32.36;20.54;101679.03;4974930;28;20031;-77
2022/08/11 16:25:10;;;;;;;4.95;2.88;;;;;;;32.32;20.26;101668.63;4978107;28;20034;-77
2022/08/11 16:27:40;;;;;;;3.17;2.58;;;;;;;32.28;20.02;101667.34;4975690;28;20034;-77
2022/08/11 16:30:06;;;;;;;3.20;2.90;;;;;;;32.13;19.87;101662.75;4986430;28;20045;-77
2022/08/11 16:32:35;;;;;;;5.25;3.92;;;;;;;32.12;19.90;101660.22;4980265;28;20026;-77
2022/08/11 16:40:38;;;;;;;5.45;2.85;;;;;;;32.09;19.83;101661.47;4992347;28;20033;-76